Time;durP1;ratioP1;P1;durP2;ratioP2;P2;SDS_P1;SDS_P2;PMS_P1;PMS_P2;Temp;Humidity;BMP_temperature;BMP_pressure;BME280_temperature;BME280_humidity;BME280_pressure;Samples;Min_cycle;Max_cycle;Signal;HPM_P1;HPM_P2
2023/12/18 00:01:45;;;;;;;14.83;10.10;;;;;;;3.26;100.00;103142.53;5138187;28;20122;-78
2023/12/18 00:04:16;;;;;;;12.77;10.37;;;;;;;3.44;100.00;103154.66;5138378;29;20123;-78
2023/12/18 00:06:48;;;;;;;18.23;10.80;;;;;;;3.51;100.00;103150.72;5152765;28;20047;-79
2023/12/18 00:09:19;;;;;;;15.20;9.63;;;;;;;3.55;100.00;103150.09;5220129;28;20471;-78
2023/12/18 00:11:51;;;;;;;14.67;9.93;;;;;;;3.60;100.00;103154.69;5152647;28;20070;-79
2023/12/18 00:14:22;;;;;;;16.30;11.40;;;;;;;3.64;100.00;103159.22;5137969;28;20051;-79
2023/12/18 00:16:53;;;;;;;16.77;10.77;;;;;;;3.75;100.00;103156.31;5138039;29;20040;-80
2023/12/18 00:19:26;;;;;;;16.13;9.75;;;;;;;3.80;100.00;103152.28;5137327;28;20051;-79
2023/12/18 00:21:57;;;;;;;16.63;10.07;;;;;;;3.83;100.00;103147.28;5137683;28;20106;-80
2023/12/18 00:24:29;;;;;;;19.07;10.87;;;;;;;3.86;100.00;103137.13;5137974;28;20036;-80
2023/12/18 00:27:00;;;;;;;17.03;10.40;;;;;;;3.89;100.00;103134.72;5137843;28;20043;-78
2023/12/18 00:29:31;;;;;;;16.00;10.63;;;;;;;3.91;100.00;103135.72;5137722;29;20398;-78
2023/12/18 00:32:03;;;;;;;20.97;10.73;;;;;;;3.94;100.00;103134.97;5137533;29;20525;-78
2023/12/18 00:34:34;;;;;;;15.67;11.50;;;;;;;3.97;100.00;103141.16;5137554;28;20067;-79
2023/12/18 00:37:06;;;;;;;15.47;11.20;;;;;;;3.99;100.00;103137.00;5137682;29;20036;-79
2023/12/18 00:39:37;;;;;;;16.33;10.20;;;;;;;4.06;100.00;103125.28;5137204;28;20106;-79
2023/12/18 00:42:09;;;;;;;17.70;11.20;;;;;;;4.07;100.00;103118.41;5137481;29;20078;-80
2023/12/18 00:44:40;;;;;;;16.40;11.77;;;;;;;4.13;100.00;103123.91;5137391;29;20114;-80
2023/12/18 00:47:12;;;;;;;14.83;11.20;;;;;;;4.10;100.00;103137.53;5138007;29;20107;-79
2023/12/18 00:49:43;;;;;;;15.67;11.43;;;;;;;4.14;100.00;103125.69;5137709;28;20224;-79
2023/12/18 00:52:15;;;;;;;21.23;11.30;;;;;;;4.17;100.00;103118.06;5138082;28;20040;-81
2023/12/18 00:54:46;;;;;;;15.73;11.83;;;;;;;4.16;100.00;103130.09;5138198;29;20141;-79
2023/12/18 00:57:17;;;;;;;20.10;12.60;;;;;;;4.21;100.00;103127.75;5137112;28;20059;-80
2023/12/18 00:59:49;;;;;;;15.10;10.97;;;;;;;4.21;100.00;103130.34;5137156;28;20032;-79
2023/12/18 01:02:20;;;;;;;16.17;12.77;;;;;;;4.20;100.00;103128.56;5136824;28;20046;-78
2023/12/18 01:04:51;;;;;;;18.53;12.77;;;;;;;4.22;100.00;103121.81;5137316;29;20063;-78
2023/12/18 01:07:23;;;;;;;20.93;12.50;;;;;;;4.24;100.00;103120.19;5137058;28;20463;-79
2023/12/18 01:09:58;;;;;;;16.98;11.98;;;;;;;4.28;100.00;103118.63;5137181;28;20493;-77
2023/12/18 01:12:29;;;;;;;18.20;12.82;;;;;;;4.24;100.00;103120.19;5137416;29;20123;-78
2023/12/18 01:15:01;;;;;;;19.10;12.63;;;;;;;4.28;100.00;103116.97;5151261;28;20146;-78
2023/12/18 01:17:32;;;;;;;22.40;13.97;;;;;;;4.28;100.00;103116.97;5137189;28;20510;-77
2023/12/18 01:20:06;;;;;;;23.37;13.80;;;;;;;4.28;100.00;103109.22;5136839;28;20502;-76
2023/12/18 01:22:37;;;;;;;18.70;13.93;;;;;;;4.31;100.00;103105.88;5137140;28;20522;-77
2023/12/18 01:25:09;;;;;;;23.80;13.03;;;;;;;4.34;100.00;103096.59;5137120;28;20152;-77
2023/12/18 01:27:43;;;;;;;22.00;14.00;;;;;;;4.29;100.00;103095.47;5137764;28;20043;-78
2023/12/18 01:30:14;;;;;;;17.15;13.38;;;;;;;4.34;100.00;103109.50;5217885;28;20036;-78
2023/12/18 01:32:46;;;;;;;21.20;13.73;;;;;;;4.36;100.00;103105.31;5144980;28;20036;-78
2023/12/18 01:35:17;;;;;;;22.43;13.90;;;;;;;4.36;100.00;103115.66;5151512;28;20127;-77
2023/12/18 01:37:49;;;;;;;18.27;14.07;;;;;;;4.42;100.00;103111.59;5152745;28;20036;-78
2023/12/18 01:40:20;;;;;;;21.47;14.60;;;;;;;4.38;100.00;103111.44;5139376;29;20032;-78
2023/12/18 01:42:52;;;;;;;22.27;14.70;;;;;;;4.38;100.00;103114.00;5137067;28;20040;-78
2023/12/18 01:45:23;;;;;;;21.50;14.03;;;;;;;4.42;100.00;103112.47;5136972;28;20115;-77
2023/12/18 01:47:54;;;;;;;24.67;14.93;;;;;;;4.45;100.00;103119.50;5136890;28;20040;-79
2023/12/18 01:50:26;;;;;;;29.53;15.67;;;;;;;4.44;100.00;103115.13;5135981;28;20082;-79
2023/12/18 01:52:57;;;;;;;19.33;13.67;;;;;;;4.47;100.00;103123.03;5136394;29;20039;-77
2023/12/18 01:55:29;;;;;;;23.13;14.87;;;;;;;4.48;100.00;103117.06;5136543;28;20032;-78
2023/12/18 01:58:00;;;;;;;22.23;15.17;;;;;;;4.47;100.00;103120.44;5136446;28;20118;-78
2023/12/18 02:00:31;;;;;;;21.93;14.47;;;;;;;4.46;100.00;103111.81;5136560;28;20039;-76
2023/12/18 02:03:04;;;;;;;20.47;14.50;;;;;;;4.51;100.00;103117.22;5139629;28;20031;-78
2023/12/18 02:05:37;;;;;;;21.67;14.80;;;;;;;4.50;100.00;103111.16;5139827;29;20038;-78
2023/12/18 02:08:08;;;;;;;21.23;14.20;;;;;;;4.53;100.00;103105.25;5154445;28;20051;-78
2023/12/18 02:10:40;;;;;;;21.90;15.27;;;;;;;4.49;100.00;103099.06;5139483;28;20031;-79
2023/12/18 02:13:11;;;;;;;19.80;13.37;;;;;;;4.53;100.00;103100.09;5139813;29;20503;-78
2023/12/18 02:15:42;;;;;;;22.43;15.40;;;;;;;4.53;100.00;103094.94;5138277;28;20067;-79
2023/12/18 02:18:14;;;;;;;25.13;15.40;;;;;;;4.48;100.00;103102.44;5139693;28;20093;-78
2023/12/18 02:20:45;;;;;;;22.33;16.23;;;;;;;4.51;100.00;103099.13;5139323;28;20139;-78
2023/12/18 02:23:17;;;;;;;19.53;14.93;;;;;;;4.49;100.00;103100.75;5139702;28;20035;-77
2023/12/18 02:25:48;;;;;;;21.03;13.60;;;;;;;4.56;100.00;103097.66;5139681;28;20467;-78
2023/12/18 02:28:20;;;;;;;25.57;14.40;;;;;;;4.48;100.00;103101.56;5139353;29;20040;-78
2023/12/18 02:30:52;;;;;;;21.70;15.20;;;;;;;4.48;100.00;103094.69;5139163;29;20032;-77
2023/12/18 02:33:23;;;;;;;18.33;14.83;;;;;;;4.49;100.00;103098.16;5139970;28;20032;-79
2023/12/18 02:35:56;;;;;;;19.53;14.90;;;;;;;4.49;100.00;103086.16;5139658;28;20109;-78
2023/12/18 02:38:27;;;;;;;19.73;14.90;;;;;;;4.48;100.00;103088.66;5138981;28;20028;-78
2023/12/18 02:40:59;;;;;;;23.07;15.13;;;;;;;4.46;100.00;103086.00;5139226;28;20044;-77
2023/12/18 02:43:30;;;;;;;27.63;14.83;;;;;;;4.48;100.00;103080.91;5139392;29;20031;-78
2023/12/18 02:46:02;;;;;;;20.23;15.03;;;;;;;4.49;100.00;103081.00;5139389;29;20185;-78
2023/12/18 02:48:34;;;;;;;20.73;14.90;;;;;;;4.47;100.00;103087.75;5138680;28;20074;-77
2023/12/18 02:51:05;;;;;;;21.77;14.40;;;;;;;4.47;100.00;103076.53;5137597;28;20039;-78
2023/12/18 02:53:37;;;;;;;22.00;14.77;;;;;;;4.48;100.00;103089.53;5139254;28;20562;-78
2023/12/18 02:56:08;;;;;;;24.83;14.70;;;;;;;4.46;100.00;103079.91;5138643;28;20444;-78
2023/12/18 02:58:40;;;;;;;19.73;13.87;;;;;;;4.45;100.00;103068.72;5139299;28;20046;-79
2023/12/18 03:01:11;;;;;;;25.63;15.93;;;;;;;4.46;100.00;103067.91;5139129;29;20435;-79
2023/12/18 03:03:43;;;;;;;25.10;15.67;;;;;;;4.48;100.00;103068.00;5139117;28;20067;-77
2023/12/18 03:06:14;;;;;;;29.13;15.40;;;;;;;4.44;100.00;103064.34;5139861;28;20040;-78
2023/12/18 03:08:46;;;;;;;24.87;15.97;;;;;;;4.44;100.00;103060.91;5139214;28;20495;-78
2023/12/18 03:11:17;;;;;;;22.43;16.33;;;;;;;4.44;100.00;103058.31;5140811;28;20577;-78
2023/12/18 03:13:48;;;;;;;27.40;16.37;;;;;;;4.42;100.00;103058.22;5148459;28;20055;-78
2023/12/18 03:16:20;;;;;;;23.30;14.67;;;;;;;4.45;100.00;103068.72;5152707;28;20072;-78
2023/12/18 03:18:51;;;;;;;22.97;15.67;;;;;;;4.43;100.00;103057.44;5147919;28;20046;-78
2023/12/18 03:21:22;;;;;;;22.33;15.57;;;;;;;4.41;100.00;103059.03;5146824;29;20007;-79
2023/12/18 03:23:54;;;;;;;22.70;16.00;;;;;;;4.41;100.00;103056.44;5146906;29;20076;-79
2023/12/18 03:26:25;;;;;;;21.60;16.73;;;;;;;4.44;100.00;103060.91;5142775;28;20058;-78
2023/12/18 03:28:56;;;;;;;25.27;17.43;;;;;;;4.42;100.00;103058.22;5139126;29;20035;-78
2023/12/18 03:31:28;;;;;;;25.03;16.77;;;;;;;4.44;100.00;103059.19;5138525;28;20075;-78
2023/12/18 03:33:59;;;;;;;20.43;15.90;;;;;;;4.51;100.00;103065.56;5138771;28;20047;-78
2023/12/18 03:36:31;;;;;;;21.13;16.17;;;;;;;4.46;100.00;103061.84;5140604;29;20118;-79
2023/12/18 03:39:02;;;;;;;32.40;18.23;;;;;;;4.46;100.00;103051.50;5141497;28;20028;-79
2023/12/18 03:41:33;;;;;;;27.00;16.20;;;;;;;4.47;100.00;103053.31;5140048;28;20028;-78
2023/12/18 03:44:05;;;;;;;21.07;15.93;;;;;;;4.51;100.00;103048.34;5139933;28;20046;-78
2023/12/18 03:46:36;;;;;;;26.30;17.23;;;;;;;4.54;100.00;103060.53;5121771;28;20048;-77
2023/12/18 03:49:07;;;;;;;20.63;16.30;;;;;;;4.53;100.00;103051.91;5137708;28;20420;-77
2023/12/18 03:51:39;;;;;;;30.33;17.23;;;;;;;4.54;100.00;103061.44;5138023;28;20032;-78
2023/12/18 03:54:10;;;;;;;25.80;16.77;;;;;;;4.59;100.00;103059.06;5137910;29;20062;-78
2023/12/18 03:56:42;;;;;;;22.73;17.20;;;;;;;4.53;100.00;103064.81;5136844;28;20059;-78
2023/12/18 03:59:13;;;;;;;30.87;17.83;;;;;;;4.48;100.00;103058.53;5137786;28;20035;-78
2023/12/18 04:01:44;;;;;;;27.50;16.60;;;;;;;4.54;100.00;103058.84;5138114;29;20036;-78
2023/12/18 04:04:16;;;;;;;25.93;17.03;;;;;;;4.54;100.00;103069.19;5138083;28;20134;-78
2023/12/18 04:06:47;;;;;;;22.87;17.53;;;;;;;4.54;100.00;103074.34;5137684;29;20415;-78
2023/12/18 04:09:18;;;;;;;24.90;17.17;;;;;;;4.53;100.00;103058.78;5137746;29;20042;-78
2023/12/18 04:11:50;;;;;;;29.20;16.37;;;;;;;4.55;100.00;103059.72;5138074;29;20090;-78
2023/12/18 04:14:21;;;;;;;30.20;17.73;;;;;;;4.58;100.00;103059.88;5137730;28;20090;-77
2023/12/18 04:16:52;;;;;;;31.60;18.53;;;;;;;4.56;100.00;103061.50;5137721;29;20062;-79
2023/12/18 04:19:24;;;;;;;30.43;17.00;;;;;;;4.59;100.00;103058.16;5137637;28;20038;-78
2023/12/18 04:21:55;;;;;;;30.47;18.00;;;;;;;4.55;100.00;103050.25;5137654;28;20063;-79
2023/12/18 04:24:26;;;;;;;30.97;19.00;;;;;;;4.57;100.00;103050.34;5137491;29;20074;-77
2023/12/18 04:26:58;;;;;;;25.83;17.67;;;;;;;4.57;100.00;103048.66;5151910;28;20043;-78
2023/12/18 04:29:29;;;;;;;26.13;17.30;;;;;;;4.57;100.00;103045.16;5137482;28;20036;-78
2023/12/18 04:32:00;;;;;;;26.57;16.90;;;;;;;4.57;100.00;103053.81;5137670;28;20042;-78
2023/12/18 04:34:32;;;;;;;34.57;18.13;;;;;;;4.56;100.00;103041.72;5137673;28;20027;-79
2023/12/18 04:37:03;;;;;;;29.73;17.37;;;;;;;4.55;100.00;103051.97;5137069;28;20055;-78
2023/12/18 04:39:35;;;;;;;34.83;17.40;;;;;;;4.56;100.00;103046.00;5137157;28;20558;-79
2023/12/18 04:42:06;;;;;;;32.78;20.08;;;;;;;4.56;100.00;103041.72;5137312;28;20036;-79
2023/12/18 04:44:38;;;;;;;29.20;18.40;;;;;;;4.56;100.00;103044.28;5136003;28;20149;-79
2023/12/18 04:47:09;;;;;;;26.23;17.53;;;;;;;4.55;100.00;103046.81;5135997;28;20050;-79
2023/12/18 04:49:41;;;;;;;23.00;17.23;;;;;;;4.57;100.00;103048.66;5136648;28;20534;-80
2023/12/18 04:52:12;;;;;;;28.43;17.67;;;;;;;4.60;100.00;103042.75;5135860;29;20036;-79
2023/12/18 04:54:44;;;;;;;27.07;17.57;;;;;;;4.58;100.00;103039.22;5137181;29;20114;-80
2023/12/18 04:57:15;;;;;;;30.07;16.90;;;;;;;4.61;100.00;103035.91;5137066;28;20101;-79
2023/12/18 04:59:46;;;;;;;31.50;18.87;;;;;;;4.57;100.00;103033.16;5137229;29;20042;-79
2023/12/18 05:02:18;;;;;;;24.33;17.37;;;;;;;4.60;100.00;103042.75;5136843;28;20032;-79
2023/12/18 05:04:49;;;;;;;35.30;20.13;;;;;;;4.57;100.00;103034.84;5137121;28;20059;-79
2023/12/18 05:07:20;;;;;;;35.50;18.83;;;;;;;4.58;100.00;103044.38;5137361;29;20028;-79
2023/12/18 05:09:52;;;;;;;28.93;17.27;;;;;;;4.58;100.00;103044.38;5136791;29;20032;-79
2023/12/18 05:12:24;;;;;;;32.43;17.93;;;;;;;4.61;100.00;103038.47;5140342;28;20054;-79
2023/12/18 05:14:55;;;;;;;29.70;17.87;;;;;;;4.60;100.00;103042.75;5140469;28;20056;-80
2023/12/18 05:17:26;;;;;;;28.87;17.47;;;;;;;4.57;100.00;103038.34;5141348;28;20077;-78
2023/12/18 05:19:58;;;;;;;27.73;18.43;;;;;;;4.56;100.00;103030.50;5140225;29;20038;-78
2023/12/18 05:22:29;;;;;;;28.90;19.30;;;;;;;4.55;100.00;103024.44;5138931;28;20111;-77
2023/12/18 05:25:00;;;;;;;28.33;19.13;;;;;;;4.54;100.00;103016.59;5137380;28;20436;-78
2023/12/18 05:27:32;;;;;;;25.27;17.40;;;;;;;4.54;100.00;103024.34;5137273;28;20109;-78
2023/12/18 05:30:04;;;;;;;31.17;20.07;;;;;;;4.51;100.00;103024.25;5136946;28;20108;-78
2023/12/18 05:32:35;;;;;;;27.57;17.03;;;;;;;4.49;100.00;103021.59;5151149;28;20093;-77
2023/12/18 05:35:07;;;;;;;29.70;18.07;;;;;;;4.53;100.00;103032.94;5136686;28;20032;-77
2023/12/18 05:37:38;;;;;;;30.53;20.13;;;;;;;4.54;100.00;103039.84;5139276;28;20078;-78
2023/12/18 05:40:10;;;;;;;33.77;20.43;;;;;;;4.54;100.00;103039.84;5138884;28;20040;-78
2023/12/18 05:42:41;;;;;;;29.13;19.57;;;;;;;4.56;100.00;103040.84;5139974;28;20056;-78
2023/12/18 05:45:12;;;;;;;26.63;19.23;;;;;;;4.55;100.00;103041.63;5213660;28;20079;-77
2023/12/18 05:47:44;;;;;;;32.07;19.30;;;;;;;4.56;100.00;103043.41;5244659;28;20113;-76
2023/12/18 05:50:16;;;;;;;26.37;18.57;;;;;;;4.59;100.00;103043.56;5243900;28;20033;-77
2023/12/18 05:52:47;;;;;;;23.77;18.13;;;;;;;4.57;100.00;103048.66;5244656;28;20469;-77
2023/12/18 05:55:19;;;;;;;38.97;19.27;;;;;;;4.60;100.00;103052.19;5244420;28;20061;-77
2023/12/18 05:57:50;;;;;;;24.50;18.80;;;;;;;4.57;100.00;103048.66;5243272;28;20329;-78
2023/12/18 06:00:21;;;;;;;30.17;19.17;;;;;;;4.58;100.00;103039.22;5243529;28;20045;-78
2023/12/18 06:02:53;;;;;;;27.03;18.00;;;;;;;4.56;100.00;103040.84;5244257;28;20099;-78
2023/12/18 06:05:24;;;;;;;28.57;19.47;;;;;;;4.57;100.00;103035.75;5244445;28;20393;-78
2023/12/18 06:07:56;;;;;;;31.90;18.53;;;;;;;4.57;100.00;103033.16;5244502;28;20029;-78
2023/12/18 06:10:27;;;;;;;28.83;19.50;;;;;;;4.55;100.00;103026.13;5244421;28;20034;-77
2023/12/18 06:12:58;;;;;;;28.93;17.90;;;;;;;4.63;100.00;103037.72;5244366;28;20041;-78
2023/12/18 06:15:30;;;;;;;25.67;19.17;;;;;;;4.61;100.00;103033.31;5244245;28;20064;-78
2023/12/18 06:18:01;;;;;;;28.23;18.63;;;;;;;4.63;100.00;103032.56;5244642;28;20064;-78
2023/12/18 06:20:33;;;;;;;26.57;18.20;;;;;;;4.62;100.00;103042.81;5243819;28;20037;-79
2023/12/18 06:23:04;;;;;;;32.83;19.50;;;;;;;4.59;100.00;103043.56;5244224;28;20381;-78
2023/12/18 06:25:35;;;;;;;31.90;19.27;;;;;;;4.61;100.00;103033.31;5244016;28;20047;-78
2023/12/18 06:28:07;;;;;;;31.57;19.53;;;;;;;4.63;100.00;103037.72;5259531;28;20033;-78
2023/12/18 06:30:38;;;;;;;28.47;19.27;;;;;;;4.61;100.00;103034.19;5243847;28;20151;-78
2023/12/18 06:33:09;;;;;;;33.13;18.03;;;;;;;4.60;100.00;103042.75;5243994;28;20033;-77
2023/12/18 06:35:41;;;;;;;26.40;18.77;;;;;;;4.61;100.00;103031.59;5244092;28;20142;-78
2023/12/18 06:38:13;;;;;;;26.88;17.60;;;;;;;4.64;100.00;103031.75;5246114;28;20033;-77
2023/12/18 06:40:44;;;;;;;35.93;20.23;;;;;;;4.63;100.00;103032.56;5245165;28;20040;-77
2023/12/18 06:43:16;;;;;;;30.40;19.37;;;;;;;4.64;100.00;103034.34;5245558;28;20473;-78
2023/12/18 06:45:48;;;;;;;25.90;19.03;;;;;;;4.64;100.00;103024.00;5244825;28;20061;-78
2023/12/18 06:48:19;;;;;;;30.30;20.20;;;;;;;4.62;100.00;103025.63;5261442;28;20091;-77
2023/12/18 06:50:50;;;;;;;25.27;20.37;;;;;;;4.62;100.00;103019.56;5253299;28;20049;-79
2023/12/18 06:53:22;;;;;;;29.90;19.40;;;;;;;4.65;100.00;103036.09;5253981;28;20045;-78
2023/12/18 06:55:55;;;;;;;25.80;17.70;;;;;;;4.64;100.00;103036.03;5253175;28;20059;-78
2023/12/18 06:58:26;;;;;;;33.35;20.08;;;;;;;4.66;100.00;103034.41;5259369;28;20037;-78
2023/12/18 07:00:57;;;;;;;33.30;18.77;;;;;;;4.64;100.00;103029.16;5244240;28;20063;-78
2023/12/18 07:03:29;;;;;;;32.77;19.33;;;;;;;4.67;100.00;103037.06;5244581;28;20026;-78
2023/12/18 07:06:01;;;;;;;29.90;19.50;;;;;;;4.64;100.00;103030.88;5244322;28;20044;-79
2023/12/18 07:08:32;;;;;;;29.43;19.50;;;;;;;4.64;100.00;103034.34;5227299;28;20033;-77
2023/12/18 07:11:03;;;;;;;33.70;18.80;;;;;;;4.66;100.00;103037.88;5260587;28;20480;-79
2023/12/18 07:13:35;;;;;;;30.33;20.20;;;;;;;4.68;100.00;103032.78;5245037;28;20116;-78
2023/12/18 07:16:07;;;;;;;29.00;19.07;;;;;;;4.69;100.00;103035.44;5247010;28;20136;-78
2023/12/18 07:18:39;;;;;;;27.73;20.10;;;;;;;4.67;100.00;103033.56;5250950;28;20040;-78
2023/12/18 07:21:10;;;;;;;30.63;19.98;;;;;;;4.69;100.00;103043.19;5254134;28;20026;-79
2023/12/18 07:23:43;;;;;;;31.80;19.53;;;;;;;4.72;100.00;103037.28;5258959;28;20411;-77
2023/12/18 07:26:14;;;;;;;30.67;17.88;;;;;;;4.71;100.00;103041.56;5260559;28;20041;-78
2023/12/18 07:28:46;;;;;;;30.17;19.27;;;;;;;4.73;100.00;103045.13;5259388;28;20085;-77
2023/12/18 07:31:18;;;;;;;35.67;20.87;;;;;;;4.74;100.00;103052.03;5253139;28;20060;-78
2023/12/18 07:33:49;;;;;;;36.67;18.48;;;;;;;4.75;100.00;103048.66;5244100;28;20044;-78
2023/12/18 07:36:21;;;;;;;33.23;19.43;;;;;;;4.74;100.00;103046.88;5243536;28;20029;-77
2023/12/18 07:38:52;;;;;;;32.37;19.97;;;;;;;4.78;100.00;103047.03;5243645;28;20033;-79
2023/12/18 07:41:24;;;;;;;30.10;19.00;;;;;;;4.77;100.00;103048.72;5241600;28;20038;-78
2023/12/18 07:43:56;;;;;;;40.17;20.15;;;;;;;4.78;100.00;103049.59;5243073;28;20044;-78
2023/12/18 07:46:27;;;;;;;32.80;20.43;;;;;;;4.79;100.00;103048.81;5242940;28;20041;-78
2023/12/18 07:48:59;;;;;;;34.97;19.33;;;;;;;4.80;100.00;103045.38;5242653;28;20052;-77
2023/12/18 07:51:30;;;;;;;29.83;19.93;;;;;;;4.80;100.00;103045.38;5242987;28;20025;-78
2023/12/18 07:54:03;;;;;;;31.53;19.57;;;;;;;4.81;100.00;103036.84;5242806;28;20124;-78
2023/12/18 07:56:35;;;;;;;33.17;19.73;;;;;;;4.79;100.00;103041.06;5242501;28;20048;-79
2023/12/18 07:59:07;;;;;;;33.53;20.90;;;;;;;4.80;100.00;103035.03;5240631;28;20037;-77
2023/12/18 08:01:39;;;;;;;33.97;19.80;;;;;;;4.76;100.00;103044.38;5257746;28;20033;-78
2023/12/18 08:04:10;;;;;;;33.07;20.37;;;;;;;4.78;100.00;103041.84;5242820;28;20503;-76
2023/12/18 08:06:41;;;;;;;33.00;20.17;;;;;;;4.77;100.00;103034.94;5243832;28;20033;-78
2023/12/18 08:09:13;;;;;;;33.33;21.40;;;;;;;4.79;100.00;103030.72;5244699;28;20116;-78
2023/12/18 08:11:45;;;;;;;32.85;21.75;;;;;;;4.79;100.00;103033.31;5246100;28;20032;-79
2023/12/18 08:14:16;;;;;;;32.63;18.37;;;;;;;4.82;100.00;103030.84;5262871;28;20401;-78
2023/12/18 08:16:49;;;;;;;32.13;19.50;;;;;;;4.84;100.00;103024.06;5249120;28;20037;-78
2023/12/18 08:19:21;;;;;;;30.63;20.35;;;;;;;4.84;100.00;103011.13;5250065;28;20029;-78
2023/12/18 08:21:52;;;;;;;31.30;20.47;;;;;;;4.89;100.00;103019.97;5249464;28;20033;-78
2023/12/18 08:24:24;;;;;;;33.40;19.53;;;;;;;4.93;100.00;103027.94;5248705;28;20062;-77
2023/12/18 08:26:55;;;;;;;34.87;20.60;;;;;;;4.95;100.00;103015.09;5242756;28;20041;-79
2023/12/18 08:29:26;;;;;;;31.23;19.87;;;;;;;5.00;100.00;103018.78;5242123;28;20033;-78
2023/12/18 08:31:58;;;;;;;32.33;19.90;;;;;;;5.04;100.00;103015.53;5242177;28;20607;-78
2023/12/18 08:34:29;;;;;;;35.63;18.67;;;;;;;5.06;100.00;103021.66;5242612;28;20032;-77
2023/12/18 08:37:01;;;;;;;34.37;19.30;;;;;;;5.07;100.00;103015.69;5240924;28;20087;-78
2023/12/18 08:39:32;;;;;;;27.50;19.10;;;;;;;5.11;100.00;103017.56;5241919;28;20038;-78
2023/12/18 08:42:03;;;;;;;33.23;19.53;;;;;;;5.13;100.00;103022.81;5241980;28;20091;-78
2023/12/18 08:44:35;;;;;;;28.27;19.77;;;;;;;5.15;100.00;103026.34;5242099;28;20033;-79
2023/12/18 08:47:07;;;;;;;28.77;19.80;;;;;;;5.22;100.00;103022.38;5242047;28;20465;-78
2023/12/18 08:49:38;;;;;;;33.07;19.03;;;;;;;5.19;100.00;103007.59;5241285;28;20045;-79
2023/12/18 08:52:09;;;;;;;28.60;18.67;;;;;;;5.20;100.00;103016.22;5241478;28;20041;-78
2023/12/18 08:54:41;;;;;;;30.47;19.40;;;;;;;5.20;100.00;103008.47;5256830;28;20033;-77
2023/12/18 08:57:12;;;;;;;31.30;18.63;;;;;;;5.22;100.00;103010.31;5241479;28;20433;-78
2023/12/18 08:59:43;;;;;;;29.37;18.57;;;;;;;5.27;100.00;103007.94;5241551;28;20512;-77
2023/12/18 09:02:15;;;;;;;29.93;19.17;;;;;;;5.27;100.00;103013.09;5256412;28;20094;-78
2023/12/18 09:04:47;;;;;;;30.50;18.73;;;;;;;5.24;100.00;103007.78;5240989;28;20025;-78
2023/12/18 09:07:18;;;;;;;31.10;18.83;;;;;;;5.30;100.00;103002.91;5241128;28;20567;-78
2023/12/18 09:09:49;;;;;;;29.13;19.27;;;;;;;5.29;100.00;103009.75;5241141;28;20079;-77
2023/12/18 09:12:21;;;;;;;29.00;18.27;;;;;;;5.30;100.00;103002.91;5241087;28;20044;-77
2023/12/18 09:14:52;;;;;;;29.67;19.13;;;;;;;5.37;100.00;102998.88;5241061;28;20121;-79
2023/12/18 09:17:23;;;;;;;32.57;19.40;;;;;;;5.43;100.00;102997.44;5240847;28;20033;-79
2023/12/18 09:19:55;;;;;;;31.87;18.93;;;;;;;5.48;100.00;102997.66;5241228;28;20101;-78
2023/12/18 09:22:26;;;;;;;29.57;18.60;;;;;;;5.48;100.00;102995.94;5241382;28;20552;-79
2023/12/18 09:24:58;;;;;;;27.20;18.73;;;;;;;5.50;100.00;103003.75;5241588;28;20263;-78
2023/12/18 09:27:29;;;;;;;25.83;17.20;;;;;;;5.48;100.00;102997.66;5241500;28;20030;-80
2023/12/18 09:30:01;;;;;;;32.57;18.40;;;;;;;5.51;100.00;102991.75;5240155;28;20033;-79
2023/12/18 09:32:32;;;;;;;31.03;18.90;;;;;;;5.56;100.00;103010.94;5239796;28;20036;-79
2023/12/18 09:35:04;;;;;;;28.97;18.53;;;;;;;5.56;100.00;103013.50;5241275;28;20033;-79
2023/12/18 09:37:36;;;;;;;30.52;17.73;;;;;;;5.63;100.00;103013.81;5256056;28;20492;-77
2023/12/18 09:40:08;;;;;;;35.97;17.67;;;;;;;5.66;100.00;103016.53;5240739;28;20098;-78
2023/12/18 09:42:39;;;;;;;28.75;19.00;;;;;;;5.62;100.00;103019.84;5240857;28;20025;-77
2023/12/18 09:45:11;;;;;;;29.63;19.00;;;;;;;5.61;100.00;103014.59;5240492;28;20034;-78
2023/12/18 09:47:42;;;;;;;28.70;18.43;;;;;;;5.62;100.00;103012.06;5239185;28;20025;-79
2023/12/18 09:50:14;;;;;;;30.57;19.40;;;;;;;5.61;100.00;103009.41;5240314;28;20120;-78
2023/12/18 09:53:12;;;;;;;29.65;18.25;;;;;;;5.58;100.00;103004.97;5240548;28;20033;-78
2023/12/18 09:55:45;;;;;;;26.13;18.88;;;;;;;5.54;100.00;103012.53;5240500;28;20080;-79
2023/12/18 09:58:18;;;;;;;29.75;17.83;;;;;;;5.54;100.00;103003.09;5240622;28;20029;-79
2023/12/18 10:00:50;;;;;;;31.30;18.58;;;;;;;5.57;100.00;103007.50;5240281;28;20495;-79
2023/12/18 10:03:21;;;;;;;25.90;18.77;;;;;;;5.56;100.00;103008.34;5240655;28;20030;-80
2023/12/18 10:05:53;;;;;;;29.40;19.10;;;;;;;5.57;100.00;103002.31;5240256;28;20121;-79
2023/12/18 10:08:24;;;;;;;31.00;18.50;;;;;;;5.54;100.00;103003.09;5255630;28;20038;-79
2023/12/18 10:10:56;;;;;;;26.73;17.53;;;;;;;5.51;100.00;103004.69;5240390;28;20040;-79
2023/12/18 10:13:27;;;;;;;26.63;18.37;;;;;;;5.50;100.00;103001.19;5240296;28;20040;-78
2023/12/18 10:15:58;;;;;;;23.70;16.73;;;;;;;5.45;100.00;102995.81;5240074;28;20073;-78
2023/12/18 10:18:31;;;;;;;28.07;19.03;;;;;;;5.42;100.00;102987.91;5240415;28;20040;-79
2023/12/18 10:21:03;;;;;;;29.00;18.02;;;;;;;5.48;100.00;102997.66;5239970;28;20053;-78
2023/12/18 10:23:35;;;;;;;28.50;17.17;;;;;;;5.48;100.00;102995.94;5242654;28;20484;-77
2023/12/18 10:26:06;;;;;;;32.55;17.63;;;;;;;5.55;100.00;102998.78;5244343;28;20041;-78
2023/12/18 10:28:38;;;;;;;25.30;17.03;;;;;;;5.58;100.00;103001.53;5244198;28;20034;-79
2023/12/18 10:31:10;;;;;;;32.30;18.80;;;;;;;5.57;100.00;102991.97;5243609;28;20034;-79
2023/12/18 10:33:42;;;;;;;30.65;19.45;;;;;;;5.55;100.00;102993.63;5243809;28;20476;-80
2023/12/18 10:36:16;;;;;;;31.50;17.13;;;;;;;5.49;100.00;102991.66;5243815;28;20079;-78
2023/12/18 10:38:52;;;;;;;30.10;18.30;;;;;;;5.44;100.00;102991.47;5243890;28;20272;-79
2023/12/18 10:41:26;;;;;;;25.33;17.10;;;;;;;5.41;100.00;102986.16;5243893;28;20468;-79
2023/12/18 10:43:58;;;;;;;25.15;18.80;;;;;;;5.42;100.00;102979.28;5244257;28;20040;-78
2023/12/18 10:46:30;;;;;;;26.00;17.85;;;;;;;5.41;100.00;102970.63;5243598;28;20037;-79
2023/12/18 10:49:03;;;;;;;25.08;18.20;;;;;;;5.42;100.00;102972.38;5243222;28;20499;-78
2023/12/18 10:51:36;;;;;;;25.50;17.52;;;;;;;5.41;100.00;102959.38;5243745;28;20030;-78
2023/12/18 10:54:09;;;;;;;23.35;16.90;;;;;;;5.37;100.00;102963.53;5243730;28;20092;-78
2023/12/18 10:56:41;;;;;;;30.02;18.88;;;;;;;5.42;100.00;102961.16;5243412;28;20037;-79
2023/12/18 10:59:13;;;;;;;29.02;17.15;;;;;;;5.39;100.00;102950.69;5243960;28;20030;-78
2023/12/18 11:01:45;;;;;;;24.60;16.98;;;;;;;5.42;100.00;102940.47;5243740;28;20457;-78
2023/12/18 11:04:18;;;;;;;29.00;18.43;;;;;;;5.41;100.00;102943.88;5243770;28;20041;-78
2023/12/18 11:06:50;;;;;;;26.48;16.83;;;;;;;5.38;100.00;102931.69;5242124;28;20097;-78
2023/12/18 11:09:21;;;;;;;25.60;16.30;;;;;;;5.41;100.00;102942.19;5243084;28;20105;-78
2023/12/18 11:11:53;;;;;;;28.60;17.73;;;;;;;5.38;100.00;102943.75;5243471;28;20061;-78
2023/12/18 11:14:35;;;;;;;27.03;17.40;;;;;;;5.41;100.00;102949.03;5243576;28;20029;-79
2023/12/18 11:17:34;;;;;;;28.17;17.52;;;;;;;5.43;100.00;102943.13;5243932;28;20056;-78
2023/12/18 11:20:24;;;;;;;30.20;17.70;;;;;;;5.28;100.00;102953.69;5243717;28;20432;-78
2023/12/18 11:22:57;;;;;;;27.55;16.70;;;;;;;5.28;100.00;102943.34;5243383;28;20033;-78
2023/12/18 11:25:35;;;;;;;25.60;17.48;;;;;;;5.31;100.00;102952.94;5244205;28;20389;-79
2023/12/18 11:28:07;;;;;;;25.63;18.08;;;;;;;5.28;100.00;102948.53;5244401;28;20029;-77
2023/12/18 11:30:43;;;;;;;23.40;16.02;;;;;;;5.28;100.00;102947.63;5244474;28;20041;-78